Time;durP1;ratioP1;P1;durP2;ratioP2;P2;SDS_P1;SDS_P2;PMS_P1;PMS_P2;Temp;Humidity;BMP_temperature;BMP_pressure;BME280_temperature;BME280_humidity;BME280_pressure;Samples;Min_cycle;Max_cycle;Signal;HPM_P1;HPM_P2
2023/07/03 00:00:23;;;;;;;2.20;1.90;;;;;;;17.56;70.18;96217.92;108924;1270;55014;-92
2023/07/03 00:03:17;;;;;;;2.80;2.20;;;;;;;17.57;70.21;96222.55;108960;1270;22534;-92
2023/07/03 00:05:49;;;;;;;3.30;2.30;;;;;;;17.57;70.16;96222.25;108957;1267;22573;-91
2023/07/03 00:08:23;;;;;;;2.00;1.80;;;;;;;17.58;70.10;96230.45;108959;1267;25231;-91
2023/07/03 00:11:02;;;;;;;2.50;2.30;;;;;;;17.58;70.09;96229.63;108999;1270;43913;-91
2023/07/03 00:13:34;;;;;;;2.40;2.10;;;;;;;17.59;70.24;96230.19;109006;1274;23816;-93
2023/07/03 00:16:06;;;;;;;2.90;2.50;;;;;;;17.59;70.37;96230.38;108917;1267;22519;-92
2023/07/03 00:18:39;;;;;;;2.40;2.20;;;;;;;17.61;70.40;96228.70;108918;1275;22511;-92
2023/07/03 00:21:10;;;;;;;2.60;1.90;;;;;;;17.62;70.26;96234.02;108983;1267;50952;-92
2023/07/03 00:23:42;;;;;;;5.60;3.00;;;;;;;17.63;70.08;96232.59;108975;1274;22512;-91
2023/07/03 00:26:15;;;;;;;3.90;2.40;;;;;;;17.64;70.18;96234.37;109013;1273;22525;-92
2023/07/03 00:28:47;;;;;;;3.70;2.40;;;;;;;17.66;70.35;96236.11;109033;1274;22533;-92
2023/07/03 00:31:18;;;;;;;2.50;2.20;;;;;;;17.66;70.31;96238.48;109032;1274;31999;-92
2023/07/03 00:33:50;;;;;;;2.90;2.60;;;;;;;17.66;70.51;96237.98;109052;1273;22514;-92
2023/07/03 00:36:22;;;;;;;3.80;2.50;;;;;;;17.69;70.49;96235.19;109075;1267;25159;-91
2023/07/03 00:38:58;;;;;;;2.90;2.70;;;;;;;17.70;70.46;96238.73;108983;1270;22529;-92
2023/07/03 00:41:32;;;;;;;3.20;2.20;;;;;;;17.71;70.46;96236.02;109031;1268;22522;-92
2023/07/03 00:44:04;;;;;;;2.20;2.00;;;;;;;17.71;70.52;96239.54;108985;1270;22538;-92
2023/07/03 00:46:35;;;;;;;2.60;2.40;;;;;;;17.72;70.45;96239.09;109004;1273;22527;-92
2023/07/03 00:49:07;;;;;;;3.70;2.40;;;;;;;17.71;70.38;96237.22;108882;1274;108596;-92
2023/07/03 00:51:40;;;;;;;2.40;2.20;;;;;;;17.68;70.30;96240.86;109100;1251;25346;-93
2023/07/03 00:54:13;;;;;;;4.30;2.60;;;;;;;17.66;70.34;96241.34;109020;1273;22515;-92
2023/07/03 00:56:45;;;;;;;5.40;2.30;;;;;;;17.65;70.22;96239.91;109031;1254;24212;-91
2023/07/03 00:59:19;;;;;;;2.40;2.20;;;;;;;17.62;70.28;96239.14;108927;1273;59213;-92
2023/07/03 01:01:56;;;;;;;3.10;2.20;;;;;;;17.63;70.36;96243.44;109022;1274;22633;-92
2023/07/03 01:04:32;;;;;;;3.30;2.00;;;;;;;17.62;70.39;96247.04;108976;1274;22512;-92
2023/07/03 01:07:10;;;;;;;2.80;2.10;;;;;;;17.62;70.41;96252.63;108953;1271;22991;-92
2023/07/03 01:09:47;;;;;;;3.20;2.20;;;;;;;17.62;70.49;96251.62;109024;1274;73380;-92
2023/07/03 01:12:22;;;;;;;5.00;2.40;;;;;;;17.60;70.67;96253.63;109000;1267;22535;-92
2023/07/03 01:14:57;;;;;;;2.80;2.40;;;;;;;17.61;70.82;96255.13;109019;1267;22512;-92
2023/07/03 01:17:31;;;;;;;2.50;2.20;;;;;;;17.62;71.00;96259.75;109011;1274;22744;-92
2023/07/03 01:20:04;;;;;;;3.30;2.60;;;;;;;17.64;71.16;96256.58;109019;1267;58421;-92
2023/07/03 01:22:42;;;;;;;3.10;2.70;;;;;;;17.63;71.02;96254.19;109070;1267;22538;-91
2023/07/03 01:25:20;;;;;;;3.50;2.50;;;;;;;17.62;71.16;96257.45;108956;1271;23296;-92
2023/07/03 01:27:54;;;;;;;2.60;2.40;;;;;;;17.59;71.39;96263.14;108928;1270;22520;-91
2023/07/03 01:30:27;;;;;;;4.00;2.80;;;;;;;17.58;71.40;96261.10;109004;1274;42795;-91
2023/07/03 01:33:00;;;;;;;4.60;3.10;;;;;;;17.57;71.66;96262.06;109056;1274;22615;-92
2023/07/03 01:35:33;;;;;;;3.00;2.80;;;;;;;17.57;71.67;96261.99;108964;1275;22542;-92
2023/07/03 01:38:06;;;;;;;4.40;3.10;;;;;;;17.57;71.74;96264.61;108991;1267;22595;-92
2023/07/03 01:40:38;;;;;;;2.40;2.20;;;;;;;17.55;71.93;96261.23;108904;1274;39992;-91
2023/07/03 01:43:10;;;;;;;3.00;2.60;;;;;;;17.51;71.97;96263.64;108931;1272;24176;-92
2023/07/03 01:45:45;;;;;;;3.10;2.70;;;;;;;17.49;72.14;96266.88;109013;1273;22544;-90
2023/07/03 01:48:17;;;;;;;2.90;2.60;;;;;;;17.50;72.33;96265.98;108936;1274;22554;-91
2023/07/03 01:50:50;;;;;;;3.00;2.30;;;;;;;17.51;72.26;96267.33;108935;1267;40757;-91
2023/07/03 01:53:27;;;;;;;3.20;2.40;;;;;;;17.54;72.37;96269.09;108952;1269;22641;-91
2023/07/03 01:56:04;;;;;;;3.50;2.60;;;;;;;17.55;72.36;96269.52;108956;1271;26540;-92
2023/07/03 01:58:43;;;;;;;3.70;2.50;;;;;;;17.58;72.40;96276.52;108970;1267;23009;-92
2023/07/03 02:01:21;;;;;;;2.60;2.40;;;;;;;17.59;72.41;96272.89;108945;1274;60288;-92
2023/07/03 02:03:58;;;;;;;3.10;2.60;;;;;;;17.60;72.46;96276.58;108890;1267;22515;-92
2023/07/03 02:06:34;;;;;;;3.40;2.80;;;;;;;17.56;72.55;96277.89;108928;1274;22564;-90
2023/07/03 02:09:07;;;;;;;3.30;2.50;;;;;;;17.52;72.64;96277.78;108931;1269;53597;-91
2023/07/03 02:11:38;;;;;;;3.20;2.50;;;;;;;17.50;72.67;96278.38;108896;1267;22542;-91
2023/07/03 02:14:09;;;;;;;3.40;2.50;;;;;;;17.50;72.81;96280.69;108963;1268;22517;-91
2023/07/03 02:16:43;;;;;;;4.20;2.50;;;;;;;17.49;72.85;96278.06;109026;1274;22544;-91
2023/07/03 02:19:14;;;;;;;3.10;2.80;;;;;;;17.47;72.92;96283.80;108920;1267;46096;-91
2023/07/03 02:21:46;;;;;;;4.20;2.90;;;;;;;17.43;72.87;96282.56;108980;1264;24224;-91
2023/07/03 02:24:17;;;;;;;4.30;3.20;;;;;;;17.37;72.87;96278.15;108939;1274;22515;-91
2023/07/03 02:26:49;;;;;;;4.40;3.30;;;;;;;17.33;72.89;96278.77;108964;1274;22527;-91
2023/07/03 02:29:20;;;;;;;5.90;2.50;;;;;;;17.27;72.91;96280.70;108879;1267;58979;-91
2023/07/03 02:31:51;;;;;;;3.10;2.70;;;;;;;17.22;72.97;96278.70;108974;1268;22543;-91
2023/07/03 02:34:22;;;;;;;3.00;2.70;;;;;;;17.17;73.00;96280.47;108925;1269;25617;-91
2023/07/03 02:36:58;;;;;;;4.20;2.70;;;;;;;17.12;73.02;96280.66;108944;1274;22530;-91
2023/07/03 02:39:30;;;;;;;2.90;2.70;;;;;;;17.09;73.22;96281.74;108913;1267;50653;-90
2023/07/03 02:42:01;;;;;;;4.10;2.70;;;;;;;17.06;73.34;96283.02;108936;1274;22518;-91
2023/07/03 02:44:34;;;;;;;3.60;3.00;;;;;;;17.04;73.50;96280.91;108890;1269;26339;-91
2023/07/03 02:47:06;;;;;;;2.90;2.60;;;;;;;17.04;73.52;96280.66;108942;1274;22513;-91
2023/07/03 02:49:38;;;;;;;3.10;2.50;;;;;;;17.01;73.58;96284.50;108878;1272;48451;-91
2023/07/03 02:52:12;;;;;;;3.20;2.90;;;;;;;16.98;73.72;96287.55;108927;1269;22534;-90
2023/07/03 02:54:43;;;;;;;3.30;2.80;;;;;;;16.98;73.79;96291.59;108923;1274;22522;-91
2023/07/03 02:57:14;;;;;;;5.10;2.70;;;;;;;16.93;73.80;96294.11;108947;1267;22554;-91
2023/07/03 02:59:47;;;;;;;3.70;3.10;;;;;;;16.86;73.89;96296.30;108892;1274;74408;-90
2023/07/03 03:02:19;;;;;;;4.00;3.00;;;;;;;16.82;74.11;96294.60;108956;1266;22530;-91
2023/07/03 03:04:50;;;;;;;3.40;2.90;;;;;;;16.79;74.32;96296.20;108947;1264;22562;-90
2023/07/03 03:07:24;;;;;;;4.00;3.20;;;;;;;16.77;74.45;96297.73;108986;1274;24169;-91
2023/07/03 03:09:55;;;;;;;4.20;3.00;;;;;;;16.76;74.58;96298.84;108921;1274;37699;-90
2023/07/03 03:12:27;;;;;;;3.10;2.80;;;;;;;16.75;74.74;96299.55;108960;1273;22515;-91
2023/07/03 03:15:00;;;;;;;3.70;3.10;;;;;;;16.76;74.87;96297.98;108934;1267;24426;-90
2023/07/03 03:17:32;;;;;;;2.90;2.60;;;;;;;16.75;74.77;96296.35;108955;1274;22637;-91
2023/07/03 03:20:04;;;;;;;3.10;2.80;;;;;;;16.75;74.90;96294.80;108908;1269;47651;-91
2023/07/03 03:22:35;;;;;;;4.70;3.30;;;;;;;16.74;75.01;96292.78;108929;1268;22996;-92
2023/07/03 03:25:07;;;;;;;4.60;2.90;;;;;;;16.73;75.03;96295.11;108939;1274;22540;-91
2023/07/03 03:27:39;;;;;;;4.00;3.00;;;;;;;16.73;75.21;96295.46;109014;1274;22531;-91
2023/07/03 03:30:12;;;;;;;5.30;3.40;;;;;;;16.71;75.20;96295.10;108912;1274;64692;-91
2023/07/03 03:32:44;;;;;;;3.20;2.80;;;;;;;16.69;75.28;96299.94;108952;1267;22667;-91
2023/07/03 03:35:15;;;;;;;3.90;3.20;;;;;;;16.67;75.33;96300.29;108948;1274;22569;-91
2023/07/03 03:37:47;;;;;;;3.60;3.30;;;;;;;16.65;75.42;96299.91;108940;1267;23229;-89
2023/07/03 03:40:18;;;;;;;3.40;2.90;;;;;;;16.64;75.55;96299.19;108801;1274;65743;-91
2023/07/03 03:42:50;;;;;;;6.80;3.10;;;;;;;16.67;75.64;96301.05;108948;1267;23280;-91
2023/07/03 03:45:22;;;;;;;4.50;3.20;;;;;;;16.68;75.71;96299.29;108964;1274;26461;-91
2023/07/03 03:47:54;;;;;;;3.50;3.10;;;;;;;16.70;75.76;96298.14;108965;1271;25259;-91
2023/07/03 03:50:26;;;;;;;3.70;3.00;;;;;;;16.73;75.73;96296.38;108921;1269;61229;-91
2023/07/03 03:52:57;;;;;;;3.60;3.10;;;;;;;16.75;75.79;96294.05;108977;1267;22526;-91
2023/07/03 03:55:29;;;;;;;3.40;2.90;;;;;;;16.79;75.84;96295.13;108925;1269;22555;-91
2023/07/03 03:58:00;;;;;;;3.60;3.00;;;;;;;16.84;75.85;96294.14;108905;1272;22517;-92
2023/07/03 04:00:32;;;;;;;4.70;3.30;;;;;;;16.89;75.82;96290.05;108969;1274;58848;-91
2023/07/03 04:03:03;;;;;;;4.50;3.50;;;;;;;16.94;76.04;96287.24;109082;1263;22562;-91
2023/07/03 04:05:35;;;;;;;3.00;2.70;;;;;;;16.98;76.14;96290.38;108889;1269;22647;-91
2023/07/03 04:08:07;;;;;;;5.00;3.30;;;;;;;17.02;76.26;96291.67;109066;1267;22514;-91
2023/07/03 04:10:38;;;;;;;4.60;3.40;;;;;;;17.07;76.50;96297.23;109005;1271;51710;-91
2023/07/03 04:13:10;;;;;;;5.90;3.00;;;;;;;17.12;76.47;96296.55;108974;1267;22513;-91
2023/07/03 04:16:00;;;;;;;5.00;3.20;;;;;;;17.15;76.01;96293.77;108958;1268;22528;-91
2023/07/03 04:18:32;;;;;;;4.00;3.30;;;;;;;17.21;75.98;96294.67;108960;1272;22751;-90
2023/07/03 04:21:04;;;;;;;3.10;2.80;;;;;;;17.26;75.88;96292.44;108908;1267;33793;-91
2023/07/03 04:23:35;;;;;;;5.40;3.10;;;;;;;17.30;75.92;96296.02;108992;1274;22573;-91
2023/07/03 04:26:07;;;;;;;2.70;2.50;;;;;;;17.35;75.88;96297.91;109011;1274;22548;-92
2023/07/03 04:28:38;;;;;;;3.70;3.10;;;;;;;17.40;75.82;96298.17;108973;1274;25441;-91
2023/07/03 04:31:10;;;;;;;3.60;2.80;;;;;;;17.45;75.76;96302.48;108811;1271;53080;-91
2023/07/03 04:33:43;;;;;;;3.60;3.00;;;;;;;17.50;75.70;96301.96;108965;1267;26516;-91
2023/07/03 04:36:17;;;;;;;3.70;3.20;;;;;;;17.53;75.50;96305.14;108962;1274;24360;-91
2023/07/03 04:38:48;;;;;;;3.80;3.00;;;;;;;17.55;75.26;96301.66;108979;1272;22568;-90
2023/07/03 04:41:22;;;;;;;4.60;3.10;;;;;;;17.59;75.44;96303.26;108888;1274;50992;-91
2023/07/03 04:43:57;;;;;;;3.90;3.10;;;;;;;17.64;75.60;96303.08;108954;1274;22582;-91
2023/07/03 04:46:29;;;;;;;3.60;2.90;;;;;;;17.72;75.59;96303.52;109004;1274;22761;-92
2023/07/03 04:49:03;;;;;;;3.80;3.10;;;;;;;17.78;75.39;96303.20;109014;1274;24211;-91
2023/07/03 04:51:34;;;;;;;3.90;3.00;;;;;;;17.85;75.44;96303.96;109043;1274;22576;-91
2023/07/03 04:54:06;;;;;;;3.50;3.10;;;;;;;17.93;75.27;96305.91;108958;1274;25331;-91
2023/07/03 04:56:38;;;;;;;3.80;3.10;;;;;;;17.98;75.11;96309.15;109026;1267;22536;-92
2023/07/03 04:59:09;;;;;;;3.70;2.90;;;;;;;18.05;74.91;96311.21;108949;1272;99463;-92
2023/07/03 05:01:43;;;;;;;5.60;3.20;;;;;;;18.10;74.56;96310.16;109050;1274;22542;-93
2023/07/03 05:04:14;;;;;;;3.60;2.70;;;;;;;18.19;74.71;96316.19;108991;1267;22563;-92
2023/07/03 05:06:47;;;;;;;4.10;2.90;;;;;;;18.28;74.72;96316.52;108985;1274;22556;-92
2023/07/03 05:09:18;;;;;;;3.70;3.20;;;;;;;18.36;74.52;96320.11;108910;1267;48423;-92
2023/07/03 05:11:49;;;;;;;3.80;2.70;;;;;;;18.43;74.48;96321.73;109081;1267;22558;-91
2023/07/03 05:14:22;;;;;;;3.50;2.90;;;;;;;18.51;74.41;96322.36;109023;1272;22522;-91
2023/07/03 05:16:53;;;;;;;5.20;3.00;;;;;;;18.62;74.57;96327.24;108978;1274;22518;-93
2023/07/03 05:19:25;;;;;;;3.90;3.00;;;;;;;18.74;74.38;96328.10;108998;1267;63406;-86
2023/07/03 05:22:21;;;;;;;4.20;2.90;;;;;;;18.95;74.41;96329.80;108950;1267;22629;-84
2023/07/03 05:25:19;;;;;;;4.90;3.10;;;;;;;19.72;76.22;96330.52;108581;1267;22557;-82
2023/07/03 05:27:56;;;;;;;3.50;2.70;;;;;;;21.31;76.41;96328.77;109017;1267;22516;-82
2023/07/03 05:30:29;;;;;;;3.80;3.30;;;;;;;23.10;73.56;96328.90;108887;1267;105384;-81
2023/07/03 05:33:00;;;;;;;3.70;2.70;;;;;;;24.65;70.96;96325.61;108921;1274;22529;-82
2023/07/03 05:35:35;;;;;;;3.50;2.50;;;;;;;26.02;68.07;96326.23;108936;1269;22524;-83
2023/07/03 05:38:11;;;;;;;2.40;2.20;;;;;;;27.05;64.69;96327.15;108942;1267;22536;-83
2023/07/03 05:40:43;;;;;;;3.10;2.50;;;;;;;27.82;62.08;96333.58;106962;1269;2573236;-82
2023/07/03 05:43:18;;;;;;;3.40;2.60;;;;;;;28.34;59.45;96334.38;108976;1275;22652;-82
2023/07/03 05:45:55;;;;;;;3.30;2.80;;;;;;;28.69;57.94;96335.36;108931;1267;22520;-81
2023/07/03 05:48:39;;;;;;;3.50;2.40;;;;;;;29.01;56.64;96335.48;108933;1265;25499;-82
2023/07/03 05:51:15;;;;;;;2.30;2.10;;;;;;;29.44;55.03;96332.62;108730;1274;48513;-82
2023/07/03 05:53:47;;;;;;;3.00;2.40;;;;;;;29.66;53.95;96339.16;108942;1274;22525;-83
2023/07/03 05:56:21;;;;;;;3.40;2.40;;;;;;;29.88;52.79;96344.51;108761;1275;22532;-82
2023/07/03 05:58:55;;;;;;;2.80;2.50;;;;;;;29.93;51.44;96349.50;108967;1275;22526;-83
2023/07/03 06:01:31;;;;;;;2.90;2.30;;;;;;;29.93;50.58;96347.70;108982;1269;22527;-84
2023/07/03 06:04:24;;;;;;;3.80;2.10;;;;;;;30.02;49.91;96352.75;108965;1268;22533;-87
2023/07/03 06:07:01;;;;;;;3.50;2.20;;;;;;;30.22;49.42;96349.92;108958;1270;22532;-84
2023/07/03 06:09:36;;;;;;;2.50;2.30;;;;;;;30.29;48.66;96348.72;108976;1273;31363;-93
2023/07/03 06:12:19;;;;;;;3.50;2.40;;;;;;;30.39;48.11;96347.39;108954;1273;22634;-82
2023/07/03 06:14:50;;;;;;;3.70;2.50;;;;;;;30.45;47.32;96352.77;108977;1273;26472;-82
2023/07/03 06:17:26;;;;;;;2.60;2.20;;;;;;;30.48;46.97;96352.49;108940;1269;24146;-82
2023/07/03 06:20:15;;;;;;;5.00;2.50;;;;;;;30.57;46.54;96353.66;108927;1274;49407;-83
2023/07/03 06:22:53;;;;;;;2.40;2.20;;;;;;;30.60;45.76;96355.75;108993;1267;22521;-82
2023/07/03 06:25:37;;;;;;;3.70;2.50;;;;;;;30.46;45.33;96347.60;108986;1266;25297;-82
2023/07/03 06:28:17;;;;;;;4.40;2.20;;;;;;;30.45;45.29;96354.73;109006;1270;24283;-83
2023/07/03 06:31:01;;;;;;;4.60;2.50;;;;;;;30.49;45.33;96353.02;108923;1266;63466;-83
2023/07/03 06:33:34;;;;;;;2.80;2.40;;;;;;;30.30;44.47;96352.91;109017;1266;22544;-83
2023/07/03 06:36:07;;;;;;;3.00;2.40;;;;;;;29.85;44.37;96358.05;109008;1273;23292;-84
2023/07/03 06:38:38;;;;;;;3.90;2.40;;;;;;;29.65;44.38;96351.11;109022;1273;22525;-81
2023/07/03 06:41:21;;;;;;;3.20;2.40;;;;;;;29.51;44.39;96355.41;108951;1273;54145;-84
2023/07/03 06:43:56;;;;;;;4.80;2.70;;;;;;;29.59;44.84;96349.55;108994;1266;22524;-84
2023/07/03 06:46:32;;;;;;;3.50;2.20;;;;;;;29.73;44.80;96353.43;109015;1270;25406;-83
2023/07/03 06:49:10;;;;;;;3.20;2.50;;;;;;;29.77;44.62;96353.23;108948;1266;63527;-82
2023/07/03 06:51:42;;;;;;;3.50;2.60;;;;;;;29.82;44.27;96355.90;108985;1267;22538;-82
2023/07/03 06:54:20;;;;;;;3.90;2.30;;;;;;;29.60;43.99;96351.48;108979;1266;25234;-83
2023/07/03 06:56:52;;;;;;;6.20;2.50;;;;;;;29.60;44.16;96349.23;109023;1270;22631;-83
2023/07/03 06:59:25;;;;;;;5.10;2.50;;;;;;;29.48;43.76;96344.90;109068;1264;57193;-83
2023/07/03 07:01:57;;;;;;;5.00;2.60;;;;;;;29.41;43.86;96346.20;109064;1266;23359;-83
2023/07/03 07:04:30;;;;;;;4.30;2.70;;;;;;;29.45;44.01;96343.60;109151;1274;22638;-84
2023/07/03 07:07:05;;;;;;;4.50;2.40;;;;;;;29.58;43.84;96344.19;109105;1266;22520;-83
2023/07/03 07:09:41;;;;;;;3.70;2.40;;;;;;;29.64;43.65;96345.27;109074;1271;48528;-83
2023/07/03 07:12:15;;;;;;;4.30;3.20;;;;;;;29.72;43.04;96341.27;109059;1273;22527;-82
2023/07/03 07:14:49;;;;;;;5.30;2.90;;;;;;;29.83;42.42;96342.45;109048;1266;24235;-82
2023/07/03 07:17:26;;;;;;;4.50;3.10;;;;;;;29.85;41.79;96342.04;109101;1273;25287;-83
2023/07/03 07:20:03;;;;;;;18.20;8.40;;;;;;;29.68;41.13;96343.81;109045;1266;66044;-87
2023/07/03 07:22:34;;;;;;;5.20;4.00;;;;;;;29.31;44.23;96343.66;109050;1266;25455;-86
2023/07/03 07:25:07;;;;;;;4.20;3.60;;;;;;;28.19;44.03;96347.64;109101;1266;23552;-85
2023/07/03 07:27:41;;;;;;;5.20;3.60;;;;;;;27.74;43.70;96344.20;109055;1273;22554;-84
2023/07/03 07:30:16;;;;;;;4.40;3.10;;;;;;;27.37;44.20;96347.20;109010;1266;92067;-83
2023/07/03 07:32:49;;;;;;;6.10;3.50;;;;;;;26.95;43.60;96345.81;108993;1266;23174;-83
2023/07/03 07:35:22;;;;;;;5.70;3.80;;;;;;;26.77;43.90;96348.55;108981;1270;24742;-82
2023/07/03 07:38:29;;;;;;;6.30;3.70;;;;;;;26.86;43.45;96342.85;108996;1267;22540;-89
2023/07/03 07:41:48;;;;;;;5.60;3.50;;;;;;;26.59;42.41;96334.48;108842;1268;107871;-89
2023/07/03 08:06:30;;;;;;;5.30;3.90;;;;;;;25.56;41.84;96330.44;107853;1283;22598;-86
2023/07/03 08:09:45;;;;;;;4.90;3.70;;;;;;;25.38;41.76;96332.70;107902;1280;24451;-86
2023/07/03 08:12:32;;;;;;;5.50;4.00;;;;;;;25.44;42.80;96332.88;108211;1278;22617;-85
2023/07/03 08:15:19;;;;;;;6.50;3.90;;;;;;;25.54;42.25;96326.09;108248;1274;22748;-85
2023/07/03 08:17:57;;;;;;;7.50;4.60;;;;;;;25.38;41.87;96334.02;108436;1275;22544;-86
2023/07/03 08:20:32;;;;;;;5.40;3.90;;;;;;;25.52;43.24;96331.35;105781;1277;3540342;-87
2023/07/03 08:23:09;;;;;;;5.60;4.20;;;;;;;25.77;42.88;96331.95;108488;1272;22586;-87
2023/07/03 08:25:49;;;;;;;6.20;4.40;;;;;;;25.93;42.95;96335.40;108990;1273;22514;-87
2023/07/03 08:28:28;;;;;;;8.30;4.30;;;;;;;26.02;42.69;96334.23;109003;1274;25316;-87
2023/07/03 08:31:06;;;;;;;5.80;4.00;;;;;;;26.06;42.84;96329.92;107573;1266;1866015;-87
2023/07/03 08:34:02;;;;;;;6.40;4.60;;;;;;;25.93;42.02;96333.76;108972;1270;23064;-86
2023/07/03 08:36:43;;;;;;;6.10;4.40;;;;;;;25.59;41.31;96332.30;108920;1267;24271;-86
2023/07/03 08:39:17;;;;;;;5.50;4.30;;;;;;;25.36;41.64;96338.42;108961;1273;22546;-87
2023/07/03 08:42:03;;;;;;;7.30;4.10;;;;;;;25.42;42.55;96335.20;106348;1273;3431077;-87
2023/07/03 08:44:38;;;;;;;7.80;4.60;;;;;;;25.51;42.15;96333.14;108956;1266;25223;-85
2023/07/03 08:47:16;;;;;;;7.20;4.60;;;;;;;25.49;42.35;96336.55;108984;1274;25259;-85
2023/07/03 08:49:55;;;;;;;7.40;4.60;;;;;;;25.45;42.00;96336.52;108958;1273;22942;-85
2023/07/03 08:52:34;;;;;;;7.20;4.60;;;;;;;25.39;42.15;96331.54;108965;1269;42739;-85
2023/07/03 08:55:17;;;;;;;6.00;4.60;;;;;;;25.34;42.08;96334.83;108961;1274;22543;-86
2023/07/03 08:57:53;;;;;;;6.40;4.20;;;;;;;25.24;42.17;96329.53;108982;1274;22560;-87
2023/07/03 09:00:28;;;;;;;6.40;4.30;;;;;;;25.21;42.24;96328.75;108923;1269;49128;-87
2023/07/03 09:03:15;;;;;;;5.60;4.40;;;;;;;25.27;42.30;96328.23;108918;1274;22667;-86
2023/07/03 09:05:55;;;;;;;6.80;4.20;;;;;;;25.34;42.41;96323.85;108997;1270;22505;-85
2023/07/03 09:08:37;;;;;;;8.00;4.60;;;;;;;25.21;41.85;96326.33;108947;1267;22528;-84
2023/07/03 09:11:24;;;;;;;6.30;4.80;;;;;;;25.07;41.50;96330.52;108919;1268;61019;-86
2023/07/03 09:14:05;;;;;;;8.20;4.70;;;;;;;24.82;41.15;96331.80;108931;1274;22542;-87
2023/07/03 09:16:44;;;;;;;8.60;5.10;;;;;;;24.62;40.91;96335.15;108972;1270;22536;-88
2023/07/03 09:22:33;;;;;;;8.50;5.60;;;;;;;24.48;41.58;96330.23;108916;1266;45180;-85
2023/07/03 09:25:20;;;;;;;9.20;5.40;;;;;;;24.41;41.58;96331.41;109015;1272;22535;-84
2023/07/03 09:28:02;;;;;;;;;;;;;;;24.46;41.89;96334.00;109014;1269;22488;-87
2023/07/03 09:30:43;;;;;;;7.50;5.40;;;;;;;24.38;41.24;96324.88;107640;1274;1775397;-83
2023/07/03 09:33:14;;;;;;;9.00;6.30;;;;;;;24.44;41.64;96324.16;108999;1269;25251;-81
2023/07/03 09:35:50;;;;;;;8.60;6.00;;;;;;;24.56;41.36;96322.95;108962;1274;22517;-83
2023/07/03 09:38:29;;;;;;;8.40;6.20;;;;;;;24.44;41.05;96326.55;108988;1266;22535;-84
2023/07/03 09:41:06;;;;;;;9.40;6.30;;;;;;;24.25;41.04;96330.09;108909;1273;105587;-85
2023/07/03 09:43:46;;;;;;;10.70;6.80;;;;;;;24.23;41.23;96331.40;109077;1266;22515;-86
2023/07/03 09:46:19;;;;;;;11.00;6.80;;;;;;;24.12;41.18;96340.72;108998;1273;22498;-86
2023/07/03 09:48:53;;;;;;;8.30;6.10;;;;;;;23.88;40.49;96338.78;109004;1269;22555;-89
2023/07/03 09:51:30;;;;;;;9.80;6.60;;;;;;;23.72;40.23;96341.92;108926;1267;46144;-87
2023/07/03 09:54:08;;;;;;;9.70;7.00;;;;;;;23.73;40.41;96340.31;108991;1274;22721;-91
2023/07/03 09:56:41;;;;;;;13.40;6.60;;;;;;;23.72;40.02;96337.68;108982;1274;22626;-87
2023/07/03 09:59:16;;;;;;;11.00;7.10;;;;;;;23.72;39.75;96342.08;109070;1266;22518;-91
2023/07/03 10:01:55;;;;;;;11.70;7.40;;;;;;;23.66;39.80;96341.64;109026;1266;40738;-88
2023/07/03 10:04:32;;;;;;;10.60;7.30;;;;;;;23.64;40.04;96343.76;109112;1269;24230;-88
2023/07/03 10:07:13;;;;;;;11.50;7.30;;;;;;;23.64;40.06;96345.38;109022;1270;22529;-89
2023/07/03 10:09:47;;;;;;;11.80;7.00;;;;;;;23.65;40.10;96346.73;109044;1266;24275;-87
2023/07/03 10:12:33;;;;;;;10.90;7.20;;;;;;;23.65;39.60;96346.57;108981;1273;54912;-86
2023/07/03 10:15:20;;;;;;;10.70;7.20;;;;;;;23.61;39.30;96348.30;108963;1272;22526;-87
2023/07/03 10:18:11;;;;;;;13.00;7.50;;;;;;;23.68;39.71;96349.08;108977;1266;22514;-86
2023/07/03 10:21:02;;;;;;;12.70;7.70;;;;;;;23.75;40.18;96354.56;108982;1269;43150;-86
2023/07/03 10:24:16;;;;;;;11.00;7.00;;;;;;;23.84;40.19;96353.73;108873;1274;22526;-86
2023/07/03 10:27:06;;;;;;;11.10;8.10;;;;;;;23.76;39.96;96349.85;108789;1272;22620;-85
2023/07/03 10:29:54;;;;;;;10.90;7.60;;;;;;;23.76;40.44;96344.52;108997;1265;22513;-85
2023/07/03 10:32:37;;;;;;;10.60;7.30;;;;;;;23.75;40.30;96347.45;109066;1267;44890;-89
2023/07/03 10:35:14;;;;;;;10.90;7.40;;;;;;;23.80;40.40;96341.40;109058;1273;22511;-86
2023/07/03 10:38:23;;;;;;;12.80;8.50;;;;;;;23.86;40.42;96346.41;108994;1266;22965;-90
2023/07/03 10:41:03;;;;;;;16.20;8.10;;;;;;;23.90;39.63;96348.30;108916;1271;46814;-85
2023/07/03 10:44:01;;;;;;;11.70;8.40;;;;;;;23.85;39.78;96352.28;108947;1274;22542;-84
2023/07/03 10:46:45;;;;;;;13.50;8.60;;;;;;;23.99;40.26;96346.16;109030;1273;22521;-84
2023/07/03 10:49:28;;;;;;;11.60;8.60;;;;;;;24.08;39.94;96346.80;108945;1274;22518;-84
2023/07/03 10:52:23;;;;;;;14.40;8.00;;;;;;;23.98;39.41;96347.86;108942;1273;72388;-85
2023/07/03 10:55:18;;;;;;;10.90;8.10;;;;;;;23.99;39.49;96338.20;108994;1266;25415;-85
2023/07/03 10:58:04;;;;;;;13.10;8.10;;;;;;;24.06;39.53;96339.27;108991;1270;22508;-84
2023/07/03 11:00:50;;;;;;;15.00;8.60;;;;;;;24.03;39.48;96341.09;108894;1272;56450;-85
2023/07/03 11:03:41;;;;;;;15.50;9.00;;;;;;;24.07;39.32;96335.49;108965;1273;22536;-84
2023/07/03 11:06:26;;;;;;;13.00;8.80;;;;;;;24.07;39.14;96335.71;109006;1266;22507;-85
2023/07/03 11:09:19;;;;;;;13.80;8.20;;;;;;;23.97;38.96;96338.41;109002;1273;22523;-85
2023/07/03 11:11:54;;;;;;;;;;;;;;;23.78;39.17;96343.06;108940;1269;79941;-84
2023/07/03 11:14:44;;;;;;;14.10;8.80;;;;;;;23.79;39.64;96336.20;108978;1271;22543;-86
2023/07/03 11:17:29;;;;;;;14.00;8.00;;;;;;;23.93;39.41;96331.02;108973;1273;26807;-85
2023/07/03 11:20:19;;;;;;;12.20;7.90;;;;;;;23.99;39.23;96327.83;108979;1273;22595;-86
2023/07/03 11:23:13;;;;;;;13.50;9.70;;;;;;;24.11;39.29;96324.77;108940;1268;22527;-87
2023/07/03 11:26:03;;;;;;;12.40;8.40;;;;;;;24.22;39.40;96322.41;108927;1274;22521;-85
2023/07/03 11:28:46;;;;;;;11.90;8.80;;;;;;;24.15;38.96;96327.21;109202;1274;22581;-85
2023/07/03 11:31:27;;;;;;;11.70;8.90;;;;;;;24.08;38.80;96327.21;107737;1268;1845946;-86
2023/07/03 11:34:08;;;;;;;12.80;8.40;;;;;;;24.08;38.90;96326.98;109156;1272;22521;-85
2023/07/03 11:36:59;;;;;;;13.00;8.90;;;;;;;24.16;39.24;96330.62;108953;1274;22727;-86
2023/07/03 11:39:36;;;;;;;14.50;8.60;;;;;;;24.23;39.45;96322.48;108915;1267;22552;-86
2023/07/03 11:42:28;;;;;;;12.70;8.50;;;;;;;24.39;39.61;96320.64;108928;1272;30261;-86
2023/07/03 11:45:26;;;;;;;13.60;9.50;;;;;;;24.50;39.32;96322.90;108991;1267;22638;-86
2023/07/03 11:48:03;;;;;;;11.00;8.40;;;;;;;24.54;39.21;96315.66;108961;1272;22567;-83
2023/07/03 11:50:41;;;;;;;13.60;8.70;;;;;;;24.51;38.87;96312.77;108939;1268;61932;-84
2023/07/03 11:53:28;;;;;;;14.20;9.30;;;;;;;24.36;38.57;96311.23;108965;1275;22580;-83
2023/07/03 11:56:03;;;;;;;14.10;8.90;;;;;;;24.23;38.90;96310.11;108948;1272;23490;-82
2023/07/03 11:58:39;;;;;;;13.30;9.20;;;;;;;24.32;39.43;96308.96;109001;1272;22547;-82
2023/07/03 12:01:33;;;;;;;12.10;9.00;;;;;;;24.34;39.49;96310.76;108953;1272;77223;-84
2023/07/03 12:04:07;;;;;;;13.40;9.30;;;;;;;24.28;39.41;96312.17;109068;1274;22548;-84
2023/07/03 12:06:51;;;;;;;12.40;8.00;;;;;;;24.34;39.30;96312.47;109000;1271;22521;-81
2023/07/03 12:09:31;;;;;;;11.70;8.20;;;;;;;24.38;38.90;96314.36;108916;1253;22554;-84
2023/07/03 12:12:28;;;;;;;13.00;8.70;;;;;;;24.33;38.95;96310.28;108864;1267;64213;-83
2023/07/03 12:15:09;;;;;;;12.50;9.30;;;;;;;24.40;39.39;96310.66;108889;1275;22540;-83
2023/07/03 12:17:41;;;;;;;12.50;8.90;;;;;;;24.40;39.41;96313.98;108957;1274;25414;-82
2023/07/03 12:20:20;;;;;;;12.90;9.20;;;;;;;24.50;39.49;96315.63;108961;1274;23365;-82
2023/07/03 12:22:54;;;;;;;12.20;8.60;;;;;;;24.59;39.87;96315.76;108952;1257;24473;-83
2023/07/03 12:25:27;;;;;;;13.20;9.10;;;;;;;24.61;39.52;96309.02;108953;1269;22537;-83
2023/07/03 12:28:13;;;;;;;14.40;9.50;;;;;;;24.67;39.38;96307.85;108975;1272;22606;-84
2023/07/03 12:30:44;;;;;;;12.80;9.00;;;;;;;24.70;39.48;96315.84;108902;1274;33363;-84
2023/07/03 12:33:22;;;;;;;12.90;9.30;;;;;;;24.71;39.22;96311.52;108922;1275;24275;-84
2023/07/03 12:35:53;;;;;;;13.20;9.10;;;;;;;24.72;39.53;96307.95;108983;1274;22524;-83